createdAt,value
2023-04-30T00:00:16.101Z,4.88
2023-04-30T00:02:44.314Z,4.15
2023-04-30T00:05:13.484Z,4.43
2023-04-30T00:07:42.535Z,3.60
2023-04-30T00:10:10.888Z,4.43
2023-04-30T00:12:38.562Z,4.13
2023-04-30T00:15:06.680Z,4.50
2023-04-30T00:17:34.378Z,4.15
2023-04-30T00:20:02.291Z,4.72
2023-04-30T00:22:33.312Z,4.10
2023-04-30T00:25:00.981Z,4.18
2023-04-30T00:27:28.649Z,3.80
2023-04-30T00:29:56.466Z,4.45
2023-04-30T00:32:24.514Z,4.28
2023-04-30T00:34:52.516Z,4.22
2023-04-30T00:37:20.673Z,4.45
2023-04-30T00:39:49.757Z,4.82
2023-04-30T00:42:17.465Z,4.40
2023-04-30T00:44:45.650Z,4.45
2023-04-30T00:47:13.337Z,4.53
2023-04-30T00:49:41.201Z,4.13
2023-04-30T00:52:08.990Z,4.60
2023-04-30T00:54:36.706Z,4.55
2023-04-30T00:57:06.886Z,4.40
2023-04-30T00:59:35.019Z,4.78
2023-04-30T01:02:03.811Z,4.18
2023-04-30T01:04:31.659Z,4.50
2023-04-30T01:07:00.936Z,4.38
2023-04-30T01:09:29.128Z,4.75
2023-04-30T01:12:01.944Z,4.30
2023-04-30T01:14:32.078Z,5.05
2023-04-30T01:17:04.614Z,4.80
2023-04-30T01:19:36.632Z,5.03
2023-04-30T01:22:05.236Z,4.93
2023-04-30T01:24:47.886Z,4.80
2023-04-30T01:27:24.597Z,4.55
2023-04-30T01:29:56.267Z,4.65
2023-04-30T01:32:27.827Z,4.65
2023-04-30T01:34:55.633Z,5.95
2023-04-30T01:37:25.546Z,5.30
2023-04-30T01:40:09.717Z,5.47
2023-04-30T01:42:42.538Z,4.90
2023-04-30T01:45:24.077Z,4.82
2023-04-30T01:47:54.458Z,5.70
2023-04-30T01:50:26.355Z,5.13
2023-04-30T01:52:56.624Z,5.30
2023-04-30T01:55:28.496Z,5.28
2023-04-30T01:57:58.571Z,5.35
2023-04-30T02:00:28.822Z,6.03
2023-04-30T02:02:56.692Z,5.50
2023-04-30T02:05:24.995Z,5.22
2023-04-30T02:07:53.533Z,5.88
2023-04-30T02:10:22.504Z,6.13
2023-04-30T02:12:50.221Z,5.68
2023-04-30T02:15:18.039Z,5.40
2023-04-30T02:17:47.154Z,5.57
2023-04-30T02:20:15.370Z,6.03
2023-04-30T02:22:43.910Z,5.95
2023-04-30T02:25:12.540Z,6.95
2023-04-30T02:27:40.546Z,5.82
2023-04-30T02:30:08.886Z,6.82
2023-04-30T02:32:36.698Z,5.80
2023-04-30T02:35:06.249Z,6.38
2023-04-30T02:37:33.945Z,5.53
2023-04-30T02:40:01.633Z,6.53
2023-04-30T02:42:29.292Z,5.88
2023-04-30T02:44:56.989Z,5.57
2023-04-30T02:47:24.695Z,6.60
2023-04-30T02:49:52.555Z,5.82
2023-04-30T02:52:22.001Z,6.05
2023-04-30T02:54:49.878Z,6.28
2023-04-30T02:57:17.558Z,7.10
2023-04-30T02:59:46.287Z,6.05
2023-04-30T03:02:14.638Z,6.50
2023-04-30T03:04:42.358Z,6.38
2023-04-30T03:07:10.019Z,6.10
2023-04-30T03:09:39.146Z,6.43
2023-04-30T03:12:06.851Z,6.78
2023-04-30T03:14:34.531Z,6.43
2023-04-30T03:17:02.183Z,6.57
2023-04-30T03:19:29.883Z,6.68
2023-04-30T03:21:57.707Z,7.40
2023-04-30T03:24:25.461Z,5.90
2023-04-30T03:26:54.507Z,6.72
2023-04-30T03:29:22.197Z,6.72
2023-04-30T03:31:49.907Z,7.15
2023-04-30T03:34:17.683Z,7.47
2023-04-30T03:36:45.451Z,8.23
2023-04-30T03:39:13.229Z,6.88
2023-04-30T03:41:41.077Z,6.70
2023-04-30T03:44:15.513Z,7.30
2023-04-30T03:46:43.625Z,7.60
2023-04-30T03:49:11.543Z,7.43
2023-04-30T03:51:39.808Z,7.95
2023-04-30T03:54:07.568Z,7.10
2023-04-30T03:56:35.550Z,7.25
2023-04-30T03:59:03.345Z,6.97
2023-04-30T04:01:33.774Z,8.40
2023-04-30T04:04:01.540Z,6.85
2023-04-30T04:06:30.023Z,7.38
2023-04-30T04:08:57.780Z,7.75
2023-04-30T04:11:25.748Z,7.47
2023-04-30T04:13:53.601Z,7.22
2023-04-30T04:16:22.066Z,7.50
2023-04-30T04:18:51.363Z,7.65
2023-04-30T04:21:19.461Z,7.13
2023-04-30T04:23:47.171Z,7.72
2023-04-30T04:26:15.072Z,6.95
2023-04-30T04:28:42.924Z,7.80
2023-04-30T04:31:11.400Z,7.20
2023-04-30T04:33:39.147Z,7.95
2023-04-30T04:36:08.785Z,7.75
2023-04-30T04:38:36.470Z,7.32
2023-04-30T04:41:05.186Z,7.47
2023-04-30T04:43:32.832Z,7.00
2023-04-30T04:46:00.986Z,7.30
2023-04-30T04:48:28.753Z,7.53
2023-04-30T04:50:57.265Z,8.00
2023-04-30T04:53:26.357Z,7.95
2023-04-30T04:55:54.161Z,7.90
2023-04-30T04:58:21.845Z,7.45
2023-04-30T05:00:49.507Z,8.65
2023-04-30T05:03:17.786Z,8.23
2023-04-30T05:05:45.583Z,8.70
2023-04-30T05:08:13.304Z,7.43
2023-04-30T05:10:43.556Z,7.72
2023-04-30T05:13:11.326Z,7.43
2023-04-30T05:15:39.026Z,7.88
2023-04-30T05:18:06.830Z,7.47
2023-04-30T05:20:34.526Z,8.10
2023-04-30T05:23:02.208Z,7.68
2023-04-30T05:25:29.901Z,8.07
2023-04-30T05:27:59.118Z,8.10
2023-04-30T05:30:26.832Z,8.65
2023-04-30T05:32:54.678Z,9.13
2023-04-30T05:35:22.472Z,8.50
2023-04-30T05:37:50.350Z,8.25
2023-04-30T05:40:18.380Z,8.38
2023-04-30T05:42:46.154Z,8.85
2023-04-30T05:45:17.225Z,8.82
2023-04-30T05:47:45.088Z,8.38
2023-04-30T05:50:12.971Z,8.60
2023-04-30T05:52:40.654Z,9.10
2023-04-30T05:55:09.623Z,8.15
2023-04-30T05:57:37.270Z,8.73
2023-04-30T06:00:06.777Z,8.98
2023-04-30T06:02:41.546Z,9.20
2023-04-30T06:05:09.663Z,8.70
2023-04-30T06:07:37.731Z,9.82
2023-04-30T06:10:06.042Z,9.18
2023-04-30T06:12:33.774Z,9.95
2023-04-30T06:15:01.442Z,10.05
2023-04-30T06:17:29.131Z,9.90
2023-04-30T06:20:00.751Z,8.88
2023-04-30T06:22:28.483Z,10.02
2023-04-30T06:24:57.747Z,9.77
2023-04-30T06:27:27.928Z,9.20
2023-04-30T06:29:56.158Z,10.10
2023-04-30T06:32:24.103Z,9.50
2023-04-30T06:34:51.788Z,9.20
2023-04-30T06:37:20.822Z,10.07
2023-04-30T06:39:48.469Z,7.90
2023-04-30T06:42:16.116Z,9.73
2023-04-30T06:44:43.881Z,10.90
2023-04-30T06:47:11.690Z,8.80
2023-04-30T06:49:39.341Z,9.30
2023-04-30T06:52:06.986Z,8.55
2023-04-30T06:54:36.021Z,8.85
2023-04-30T06:57:03.680Z,9.05
2023-04-30T06:59:31.407Z,9.98
2023-04-30T07:01:59.166Z,10.18
2023-04-30T07:04:27.882Z,9.02
2023-04-30T07:06:55.561Z,8.95
2023-04-30T07:09:23.245Z,9.52
2023-04-30T07:11:52.303Z,9.23
2023-04-30T07:14:19.991Z,10.13
2023-04-30T07:16:47.870Z,9.30
2023-04-30T07:19:15.545Z,8.98
2023-04-30T07:21:43.567Z,9.00
2023-04-30T07:24:11.446Z,10.18
2023-04-30T07:26:39.085Z,9.93
2023-04-30T07:29:08.151Z,10.25
2023-04-30T07:31:35.925Z,10.10
2023-04-30T07:34:03.746Z,10.30
2023-04-30T07:36:31.568Z,10.40
2023-04-30T07:38:59.273Z,9.50
2023-04-30T07:41:27.013Z,10.43
2023-04-30T07:43:54.652Z,10.35
2023-04-30T07:46:25.035Z,10.50
2023-04-30T07:48:52.727Z,11.20
2023-04-30T07:51:20.496Z,11.10
2023-04-30T07:53:48.169Z,10.52
2023-04-30T07:56:15.976Z,11.77
2023-04-30T07:58:43.751Z,11.88
2023-04-30T08:01:11.454Z,10.07
2023-04-30T08:03:40.647Z,10.13
2023-04-30T08:06:08.445Z,9.50
2023-04-30T08:08:36.098Z,10.55
2023-04-30T08:11:03.863Z,11.07
2023-04-30T08:13:31.906Z,10.82
2023-04-30T08:15:59.686Z,10.57
2023-04-30T08:18:27.404Z,12.05
2023-04-30T08:20:56.565Z,11.98
2023-04-30T08:23:24.305Z,9.63
2023-04-30T08:25:52.452Z,11.57
2023-04-30T08:28:20.335Z,10.07
2023-04-30T08:30:48.004Z,10.50
2023-04-30T08:33:15.780Z,10.82
2023-04-30T08:35:43.507Z,10.98
2023-04-30T08:38:12.573Z,10.30
2023-04-30T08:40:50.998Z,11.75
2023-04-30T08:43:19.927Z,10.35
2023-04-30T08:45:47.661Z,9.30
2023-04-30T08:48:16.577Z,9.43
2023-04-30T08:50:44.424Z,10.85
2023-04-30T08:53:15.367Z,10.25
2023-04-30T08:55:43.047Z,8.73
2023-04-30T08:58:11.366Z,10.45
2023-04-30T09:00:39.471Z,8.80
2023-04-30T09:03:07.507Z,9.63
2023-04-30T09:05:35.772Z,9.43
2023-04-30T09:08:04.370Z,7.43
2023-04-30T09:10:35.037Z,8.10
2023-04-30T09:13:03.873Z,8.20
2023-04-30T09:15:31.847Z,8.48
2023-04-30T09:18:10.028Z,6.60
2023-04-30T09:20:38.020Z,7.03
2023-04-30T09:23:09.788Z,7.57
2023-04-30T09:25:42.576Z,8.57
2023-04-30T09:28:11.375Z,8.27
2023-04-30T09:30:39.148Z,8.60
2023-04-30T09:33:08.676Z,7.78
2023-04-30T09:35:39.783Z,7.70
2023-04-30T09:38:07.488Z,6.93
2023-04-30T09:40:38.525Z,7.07
2023-04-30T09:43:07.811Z,7.18
2023-04-30T09:45:42.412Z,6.70
2023-04-30T09:48:17.289Z,6.78
2023-04-30T09:50:47.242Z,5.00
2023-04-30T09:53:17.822Z,4.93
2023-04-30T09:55:46.162Z,3.65
2023-04-30T09:58:16.697Z,5.47
2023-04-30T10:00:44.808Z,5.82
2023-04-30T10:03:13.390Z,5.13
2023-04-30T10:05:42.715Z,5.25
2023-04-30T10:08:12.107Z,4.20
2023-04-30T10:10:41.812Z,4.50
2023-04-30T10:13:12.534Z,5.85
2023-04-30T10:15:44.551Z,5.63
2023-04-30T10:18:12.870Z,4.43
2023-04-30T10:20:41.113Z,4.97
2023-04-30T10:23:09.371Z,5.28
2023-04-30T10:25:41.019Z,4.32
2023-04-30T10:28:09.728Z,4.30
2023-04-30T10:30:37.405Z,4.03
2023-04-30T10:33:10.741Z,5.18
2023-04-30T10:35:46.496Z,4.47
2023-04-30T10:38:16.432Z,3.80
2023-04-30T10:40:46.733Z,3.88
2023-04-30T10:43:14.503Z,4.05
2023-04-30T10:45:44.659Z,3.63
2023-04-30T10:48:15.772Z,3.33
2023-04-30T10:50:46.124Z,2.95
2023-04-30T10:53:14.601Z,3.33
2023-04-30T10:55:47.194Z,3.60
2023-04-30T10:58:25.129Z,3.17
2023-04-30T11:01:01.079Z,2.72
2023-04-30T11:03:31.418Z,2.90
2023-04-30T11:06:00.076Z,2.83
2023-04-30T11:08:34.669Z,3.10
2023-04-30T11:11:03.837Z,2.55
2023-04-30T11:13:39.679Z,2.60
2023-04-30T11:16:07.549Z,2.63
2023-04-30T11:18:42.063Z,2.50
2023-04-30T11:21:10.024Z,2.40
2023-04-30T11:23:40.337Z,2.42
2023-04-30T11:26:10.136Z,2.17
2023-04-30T11:28:38.756Z,2.10
2023-04-30T11:31:06.861Z,2.05
2023-04-30T11:33:36.306Z,2.13
2023-04-30T11:36:04.119Z,2.22
2023-04-30T11:38:32.512Z,1.38
2023-04-30T11:41:00.576Z,2.00
2023-04-30T11:43:28.947Z,2.40
2023-04-30T11:46:06.130Z,1.85
2023-04-30T11:48:34.736Z,2.38
2023-04-30T11:51:07.619Z,1.77
2023-04-30T11:53:35.326Z,1.67
2023-04-30T11:56:06.413Z,2.53
2023-04-30T11:58:38.054Z,2.05
2023-04-30T12:01:06.473Z,2.00
2023-04-30T12:03:34.291Z,1.70
2023-04-30T12:06:02.631Z,2.28
2023-04-30T12:08:31.715Z,1.90
2023-04-30T12:10:59.468Z,2.33
2023-04-30T12:13:27.159Z,2.45
2023-04-30T12:16:01.708Z,2.30
2023-04-30T12:18:29.383Z,2.50
2023-04-30T12:20:57.103Z,1.90
2023-04-30T12:23:24.792Z,1.92
2023-04-30T12:25:53.875Z,2.38
2023-04-30T12:28:24.604Z,2.50
2023-04-30T12:30:54.348Z,2.42
2023-04-30T12:33:22.239Z,2.00
2023-04-30T12:35:53.586Z,2.30
2023-04-30T12:38:23.320Z,2.00
2023-04-30T12:40:51.054Z,2.70
2023-04-30T12:43:20.273Z,2.00
2023-04-30T12:45:51.239Z,2.08
2023-04-30T12:48:19.981Z,2.10
2023-04-30T12:50:53.894Z,2.17
2023-04-30T12:53:21.914Z,2.17
2023-04-30T12:56:08.130Z,1.73
2023-04-30T12:58:38.794Z,1.83
2023-04-30T13:01:07.213Z,2.05
2023-04-30T13:03:35.086Z,2.25
2023-04-30T13:06:04.615Z,2.22
2023-04-30T13:08:37.226Z,2.13
2023-04-30T13:11:11.392Z,1.67
2023-04-30T13:13:40.691Z,2.72
2023-04-30T13:16:08.661Z,1.80
2023-04-30T13:18:37.107Z,2.47
2023-04-30T13:21:05.041Z,1.52
2023-04-30T13:23:41.219Z,1.60
2023-04-30T13:26:16.740Z,1.40
2023-04-30T13:28:45.819Z,1.73
2023-04-30T13:31:13.508Z,1.80
2023-04-30T13:33:41.599Z,1.90
2023-04-30T13:36:09.334Z,1.80
2023-04-30T13:38:37.017Z,1.70
2023-04-30T13:41:04.725Z,1.77
2023-04-30T13:43:32.518Z,1.52
2023-04-30T13:46:01.843Z,1.90
2023-04-30T13:48:29.558Z,1.80
2023-04-30T13:50:57.392Z,1.75
2023-04-30T13:53:25.152Z,2.75
2023-04-30T13:55:52.827Z,1.80
2023-04-30T13:58:20.692Z,2.08
2023-04-30T14:00:48.375Z,2.03
2023-04-30T14:03:17.561Z,2.22
2023-04-30T14:05:45.333Z,2.78
2023-04-30T14:08:12.983Z,2.22
2023-04-30T14:10:40.633Z,2.40
2023-04-30T14:13:08.556Z,2.47
2023-04-30T14:15:36.318Z,2.42
2023-04-30T14:18:04.059Z,2.60
2023-04-30T14:20:33.137Z,2.30
2023-04-30T14:23:02.732Z,2.17
2023-04-30T14:25:30.555Z,2.00
2023-04-30T14:27:58.186Z,1.58
2023-04-30T14:30:25.923Z,2.13
2023-04-30T14:32:53.687Z,1.92
2023-04-30T14:35:21.353Z,1.65
2023-04-30T14:37:50.373Z,2.20
2023-04-30T14:40:18.027Z,2.08
2023-04-30T14:42:45.745Z,1.88
2023-04-30T14:45:14.002Z,1.88
2023-04-30T14:47:42.257Z,2.20
2023-04-30T14:50:10.748Z,2.13
2023-04-30T14:52:38.451Z,1.90
2023-04-30T14:55:08.148Z,1.40
2023-04-30T14:57:36.032Z,1.60
2023-04-30T15:00:04.178Z,1.65
2023-04-30T15:02:31.988Z,1.77
2023-04-30T15:04:59.766Z,2.00
2023-04-30T15:07:27.885Z,1.70
2023-04-30T15:09:55.891Z,2.42
2023-04-30T15:12:25.130Z,1.55
2023-04-30T15:14:52.804Z,2.92
2023-04-30T15:17:20.577Z,1.88
2023-04-30T15:19:48.290Z,2.33
2023-04-30T15:22:16.184Z,2.65
2023-04-30T15:24:44.258Z,2.20
2023-04-30T15:27:12.081Z,2.00
2023-04-30T15:29:41.398Z,2.30
2023-04-30T15:32:09.119Z,2.10
2023-04-30T15:34:36.784Z,2.42
2023-04-30T15:37:04.486Z,2.33
2023-04-30T15:39:32.174Z,2.67
2023-04-30T15:41:59.838Z,22.75
2023-04-30T15:44:27.489Z,2.00
2023-04-30T15:46:56.719Z,2.22
2023-04-30T15:49:24.415Z,1.70
2023-04-30T15:51:52.409Z,1.85
2023-04-30T15:54:20.107Z,1.67
2023-04-30T15:56:48.513Z,1.85
2023-04-30T15:59:17.748Z,1.70
2023-04-30T16:01:47.304Z,1.80
2023-04-30T16:04:18.856Z,1.80
2023-04-30T16:06:46.882Z,2.00
2023-04-30T16:09:17.398Z,6.82
2023-04-30T16:11:45.002Z,1.80
2023-04-30T16:14:13.102Z,1.80
2023-04-30T16:16:40.786Z,1.48
2023-04-30T16:19:09.533Z,2.08
2023-04-30T16:21:39.215Z,1.88
2023-04-30T16:24:07.076Z,2.20
2023-04-30T16:26:35.215Z,1.65
2023-04-30T16:29:02.932Z,1.90
2023-04-30T16:31:30.875Z,1.83
2023-04-30T16:33:58.713Z,1.90
2023-04-30T16:36:28.047Z,1.75
2023-04-30T16:38:57.104Z,1.85
2023-04-30T16:41:24.790Z,1.88
2023-04-30T16:43:52.433Z,1.75
2023-04-30T16:46:20.269Z,1.80
2023-04-30T16:48:48.651Z,1.73
2023-04-30T16:51:16.290Z,1.73
2023-04-30T16:53:44.014Z,1.52
2023-04-30T16:56:13.061Z,1.80
2023-04-30T16:58:40.790Z,1.90
2023-04-30T17:01:08.674Z,1.83
2023-04-30T17:03:36.642Z,2.05
2023-04-30T17:06:05.791Z,1.95
2023-04-30T17:08:33.567Z,1.92
2023-04-30T17:11:01.760Z,1.60
2023-04-30T17:13:32.187Z,2.05
2023-04-30T17:16:01.933Z,2.05
2023-04-30T17:18:29.983Z,2.03
2023-04-30T17:20:57.660Z,2.40
2023-04-30T17:23:25.697Z,2.20
2023-04-30T17:25:53.528Z,2.05
2023-04-30T17:28:21.314Z,2.80
2023-04-30T17:30:50.492Z,2.60
2023-04-30T17:33:18.136Z,2.30
2023-04-30T17:35:45.810Z,2.78
2023-04-30T17:38:13.480Z,2.30
2023-04-30T17:40:41.156Z,2.50
2023-04-30T17:43:09.343Z,2.35
2023-04-30T17:45:37.169Z,2.38
2023-04-30T17:48:06.382Z,2.33
2023-04-30T17:50:34.281Z,2.47
2023-04-30T17:53:01.963Z,2.50
2023-04-30T17:55:29.692Z,2.63
2023-04-30T17:57:59.323Z,2.70
2023-04-30T18:00:26.987Z,2.90
2023-04-30T18:02:54.719Z,3.20
2023-04-30T18:05:23.890Z,2.90
2023-04-30T18:07:51.564Z,3.10
2023-04-30T18:10:19.306Z,2.90
2023-04-30T18:12:47.108Z,2.83
2023-04-30T18:15:15.203Z,3.33
2023-04-30T18:17:43.070Z,2.97
2023-04-30T18:20:11.984Z,3.35
2023-04-30T18:22:43.566Z,3.40
2023-04-30T18:25:13.055Z,3.40
2023-04-30T18:27:41.712Z,3.47
2023-04-30T18:30:09.732Z,3.90
2023-04-30T18:32:38.165Z,3.03
2023-04-30T18:35:06.336Z,3.50
2023-04-30T18:37:34.045Z,3.45
2023-04-30T18:40:04.172Z,3.90
2023-04-30T18:42:33.338Z,4.13
2023-04-30T18:45:01.195Z,3.83
2023-04-30T18:47:30.456Z,3.53
2023-04-30T18:49:58.296Z,3.63
2023-04-30T18:52:26.201Z,3.13
2023-04-30T18:54:53.878Z,3.78
2023-04-30T18:57:23.239Z,3.95
2023-04-30T18:59:51.047Z,3.03
2023-04-30T19:02:18.798Z,4.05
2023-04-30T19:04:46.526Z,3.63
2023-04-30T19:07:14.298Z,3.67
2023-04-30T19:09:42.029Z,3.38
2023-04-30T19:12:10.372Z,3.65
2023-04-30T19:14:42.464Z,4.20
2023-04-30T19:17:10.845Z,3.33
2023-04-30T19:19:38.813Z,3.45
2023-04-30T19:22:06.990Z,3.50
2023-04-30T19:24:34.679Z,3.42
2023-04-30T19:27:04.091Z,3.60
2023-04-30T19:29:31.758Z,3.40
2023-04-30T19:32:03.290Z,3.65
2023-04-30T19:34:31.107Z,3.47
2023-04-30T19:36:58.770Z,3.30
2023-04-30T19:39:30.020Z,3.42
2023-04-30T19:41:57.773Z,3.08
2023-04-30T19:44:25.446Z,3.25
2023-04-30T19:46:53.145Z,3.10
2023-04-30T19:49:25.379Z,3.05
2023-04-30T19:51:54.204Z,3.22
2023-04-30T19:54:21.944Z,3.40
2023-04-30T19:56:52.820Z,3.38
2023-04-30T19:59:20.749Z,2.83
2023-04-30T20:01:48.838Z,3.50
2023-04-30T20:04:16.678Z,3.40
2023-04-30T20:06:45.817Z,3.22
2023-04-30T20:09:15.098Z,3.10
2023-04-30T20:11:42.805Z,3.28
2023-04-30T20:14:10.721Z,3.10
2023-04-30T20:16:38.491Z,3.33
2023-04-30T20:19:06.719Z,2.92
2023-04-30T20:21:34.562Z,3.58
2023-04-30T20:24:04.297Z,3.28
2023-04-30T20:26:32.161Z,3.00
2023-04-30T20:29:00.400Z,3.00
2023-04-30T20:31:31.120Z,3.38
2023-04-30T20:33:59.435Z,2.85
2023-04-30T20:36:29.699Z,3.10
2023-04-30T20:38:57.392Z,3.15
2023-04-30T20:41:28.494Z,3.70
2023-04-30T20:43:56.832Z,3.00
2023-04-30T20:46:24.942Z,3.40
2023-04-30T20:48:54.486Z,2.88
2023-04-30T20:51:23.422Z,2.75
2023-04-30T20:53:51.164Z,3.25
2023-04-30T20:56:18.784Z,2.88
2023-04-30T20:58:47.823Z,3.00
2023-04-30T21:01:15.570Z,2.90
2023-04-30T21:03:43.276Z,3.40
2023-04-30T21:06:11.050Z,3.25
2023-04-30T21:08:38.823Z,2.83
2023-04-30T21:11:06.494Z,2.90
2023-04-30T21:13:34.173Z,2.60
2023-04-30T21:16:05.435Z,2.85
2023-04-30T21:18:33.279Z,2.67
2023-04-30T21:21:04.853Z,2.92
2023-04-30T21:23:32.584Z,2.70
2023-04-30T21:26:00.358Z,3.00
2023-04-30T21:28:28.085Z,3.25
2023-04-30T21:30:55.838Z,2.90
2023-04-30T21:33:24.913Z,3.22
2023-04-30T21:35:52.572Z,3.03
2023-04-30T21:38:20.235Z,2.85
2023-04-30T21:40:47.885Z,2.88
2023-04-30T21:43:17.819Z,3.03
2023-04-30T21:45:45.491Z,3.05
2023-04-30T21:48:13.154Z,3.03
2023-04-30T21:50:42.235Z,3.10
2023-04-30T21:53:10.083Z,3.60
2023-04-30T21:55:37.740Z,3.00
2023-04-30T21:58:05.405Z,3.38
2023-04-30T22:00:33.126Z,2.92
2023-04-30T22:03:00.886Z,3.20
2023-04-30T22:05:28.590Z,3.15
2023-04-30T22:07:57.701Z,3.20
2023-04-30T22:10:25.484Z,3.10
2023-04-30T22:12:53.138Z,2.88
2023-04-30T22:15:21.422Z,3.03
2023-04-30T22:17:49.471Z,2.67
2023-04-30T22:20:17.513Z,3.15
2023-04-30T22:22:45.184Z,2.65
2023-04-30T22:25:14.369Z,2.50
2023-04-30T22:27:42.024Z,2.92
2023-04-30T22:30:10.020Z,2.60
2023-04-30T22:32:38.533Z,3.10
2023-04-30T22:35:07.859Z,3.17
2023-04-30T22:37:38.556Z,2.92
2023-04-30T22:40:07.416Z,2.78
2023-04-30T22:42:36.468Z,2.83
2023-04-30T22:45:04.320Z,2.95
2023-04-30T22:47:32.113Z,2.78
2023-04-30T22:49:59.783Z,2.63
2023-04-30T22:52:29.449Z,2.70
2023-04-30T22:54:57.249Z,2.70
2023-04-30T22:57:25.530Z,2.92
2023-04-30T22:59:54.983Z,2.53
2023-04-30T23:02:22.826Z,2.78
2023-04-30T23:04:50.646Z,2.63
2023-04-30T23:07:18.517Z,2.72
2023-04-30T23:09:46.221Z,2.97
2023-04-30T23:12:13.893Z,2.65
2023-04-30T23:14:41.587Z,2.58
2023-04-30T23:17:10.939Z,3.03
2023-04-30T23:19:38.766Z,2.80
2023-04-30T23:22:06.510Z,2.90
2023-04-30T23:24:35.855Z,2.88
2023-04-30T23:27:03.889Z,3.05
2023-04-30T23:29:31.549Z,2.88
2023-04-30T23:31:59.484Z,2.75
2023-04-30T23:34:28.581Z,2.38
2023-04-30T23:36:56.231Z,2.88
2023-04-30T23:39:24.416Z,3.05
2023-04-30T23:41:52.357Z,2.85
2023-04-30T23:44:20.857Z,2.58
2023-04-30T23:46:48.697Z,2.80
2023-04-30T23:49:17.851Z,3.10
2023-04-30T23:51:46.948Z,2.85
2023-04-30T23:54:14.932Z,2.78
2023-04-30T23:56:42.592Z,2.88
2023-04-30T23:59:10.245Z,3.00
